Time;durP1;ratioP1;P1;durP2;ratioP2;P2;SDS_P1;SDS_P2;PMS_P1;PMS_P2;Temp;Humidity;BMP_temperature;BMP_pressure;BME280_temperature;BME280_humidity;BME280_pressure;Samples;Min_cycle;Max_cycle;Signal;HPM_P1;HPM_P2
2023/11/17 05:30:58;;;;;;;0.10;0.10;;;8.90;87.40;;;;;;5738803;23;20038;-91
2023/11/17 05:33:23;;;;;;;0.10;0.10;;;9.00;87.60;;;;;;5017397;28;20033;-91
2023/11/17 05:35:49;;;;;;;0.10;0.10;;;9.00;87.50;;;;;;5020804;28;20031;-92
2023/11/17 05:38:14;;;;;;;0.10;0.10;;;8.90;87.70;;;;;;5011298;28;20017;-92
2023/11/17 05:40:40;;;;;;;0.10;0.10;;;8.90;87.70;;;;;;5001489;28;20129;-92
2023/11/17 05:43:06;;;;;;;0.10;0.10;;;8.90;87.80;;;;;;5000567;28;20018;-90
2023/11/17 05:45:33;;;;;;;0.10;0.10;;;8.90;87.60;;;;;;5001586;28;20120;-91
2023/11/17 05:47:59;;;;;;;0.10;0.10;;;8.90;87.60;;;;;;5017623;28;20022;-90
2023/11/17 05:50:24;;;;;;;0.10;0.10;;;8.90;87.40;;;;;;5003021;28;20036;-91
2023/11/17 05:52:50;;;;;;;0.10;0.10;;;8.90;87.70;;;;;;5017138;28;20026;-87
2023/11/17 05:55:17;;;;;;;0.10;0.10;;;8.80;87.70;;;;;;5016714;28;20120;-84
2023/11/17 05:57:45;;;;;;;0.10;0.10;;;8.80;87.60;;;;;;5016095;28;20025;-83
2023/11/17 06:00:18;;;;;;;0.10;0.10;;;8.80;87.50;;;;;;5009341;28;20037;-85
2023/11/17 06:02:44;;;;;;;0.10;0.10;;;8.80;87.70;;;;;;5015391;28;20033;-82
2023/11/17 06:05:09;;;;;;;0.10;0.10;;;8.80;87.70;;;;;;5037078;28;20482;-82
2023/11/17 06:07:36;;;;;;;0.10;0.10;;;8.80;87.60;;;;;;5036895;28;20033;-83
2023/11/17 06:10:04;;;;;;;0.10;0.10;;;8.80;87.70;;;;;;5019654;28;20100;-86
2023/11/17 06:12:31;;;;;;;0.10;0.10;;;8.80;87.80;;;;;;5037593;28;20021;-91
2023/11/17 06:14:57;;;;;;;0.10;0.10;;;8.80;87.50;;;;;;5014528;28;20463;-93
2023/11/17 06:17:23;;;;;;;0.10;0.10;;;8.80;87.60;;;;;;5000174;28;20033;-85
2023/11/17 06:19:49;;;;;;;0.10;0.10;;;8.80;87.60;;;;;;5016947;28;20037;-89
2023/11/17 06:22:14;;;;;;;0.10;0.10;;;8.80;87.60;;;;;;5015099;28;20022;-93
2023/11/17 06:24:41;;;;;;;0.10;0.10;;;8.80;87.90;;;;;;5020030;28;20137;-91
2023/11/17 06:27:10;;;;;;;0.13;0.13;;;8.80;87.70;;;;;;5020249;28;20049;-90
2023/11/17 06:29:36;;;;;;;0.10;0.10;;;8.80;87.60;;;;;;5000905;28;20123;-91
2023/11/17 06:32:02;;;;;;;0.10;0.10;;;8.70;87.60;;;;;;4986618;28;20094;-85
2023/11/17 06:34:28;;;;;;;0.10;0.10;;;8.80;87.80;;;;;;4993373;28;20035;-90
2023/11/17 06:36:54;;;;;;;0.10;0.10;;;8.80;87.60;;;;;;4982962;28;20026;-82
2023/11/17 06:39:23;;;;;;;0.10;0.10;;;8.70;87.60;;;;;;4995283;28;20034;-88
2023/11/17 06:41:53;;;;;;;0.10;0.10;;;8.80;87.80;;;;;;4997358;28;20018;-87
2023/11/17 06:44:20;;;;;;;0.10;0.10;;;8.70;87.60;;;;;;4996588;28;20034;-89
2023/11/17 06:46:50;;;;;;;0.10;0.10;;;8.70;87.60;;;;;;4996044;28;20056;-81
2023/11/17 06:49:19;;;;;;;0.10;0.10;;;8.70;87.50;;;;;;4996411;28;20030;-88
2023/11/17 06:51:48;;;;;;;0.10;0.10;;;8.70;87.60;;;;;;4981096;28;20015;-89
2023/11/17 06:54:15;;;;;;;0.10;0.10;;;8.70;87.30;;;;;;5008947;28;20026;-90
2023/11/17 06:56:41;;;;;;;0.10;0.10;;;8.60;87.30;;;;;;4995825;28;20105;-87
2023/11/17 06:59:09;;;;;;;0.10;0.10;;;8.60;87.60;;;;;;4976778;28;20030;-87
2023/11/17 07:01:38;;;;;;;0.10;0.10;;;8.60;87.40;;;;;;4988866;28;20022;-88
2023/11/17 07:04:06;;;;;;;0.10;0.10;;;8.40;87.40;;;;;;4984155;28;20029;-87
2023/11/17 07:06:32;;;;;;;0.10;0.10;;;8.50;87.40;;;;;;5008909;28;20183;-88
2023/11/17 07:08:58;;;;;;;0.10;0.10;;;8.50;87.70;;;;;;4988848;28;20114;-87
2023/11/17 07:11:24;;;;;;;0.10;0.10;;;8.50;87.60;;;;;;4994790;28;20061;-88
2023/11/17 07:13:55;;;;;;;0.10;0.10;;;8.40;87.50;;;;;;4995673;28;20026;-88
2023/11/17 07:16:21;;;;;;;0.10;0.10;;;8.50;87.70;;;;;;5011458;28;20031;-87
2023/11/17 07:18:47;;;;;;;0.08;0.08;;;8.40;87.60;;;;;;4994948;28;20500;-88
2023/11/17 07:21:16;;;;;;;0.10;0.10;;;8.50;87.60;;;;;;4994547;28;20049;-89
2023/11/17 07:23:45;;;;;;;0.10;0.10;;;8.50;87.40;;;;;;4994992;28;20022;-87
2023/11/17 07:26:20;;;;;;;0.10;0.10;;;8.40;87.40;;;;;;4995338;28;20042;-87
2023/11/17 07:28:47;;;;;;;0.20;0.20;;;8.50;87.60;;;;;;4994081;28;20019;-88
2023/11/17 07:31:18;;;;;;;0.10;0.10;;;8.50;87.30;;;;;;5014966;28;20111;-88
2023/11/17 07:33:44;;;;;;;0.10;0.10;;;8.50;87.50;;;;;;5020709;28;20052;-88
2023/11/17 07:36:15;;;;;;;0.10;0.10;;;8.50;87.80;;;;;;5020548;28;20833;-88
2023/11/17 07:38:42;;;;;;;0.00;0.00;;;8.60;87.60;;;;;;5021223;28;20025;-87
2023/11/17 07:41:08;;;;;;;0.00;0.00;;;8.60;87.50;;;;;;5021729;28;20179;-89
2023/11/17 07:43:34;;;;;;;0.10;0.10;;;8.60;87.60;;;;;;5036837;28;20496;-88
2023/11/17 07:46:02;;;;;;;0.10;0.10;;;8.70;87.70;;;;;;5021422;28;20109;-89
2023/11/17 07:48:28;;;;;;;0.10;0.10;;;8.70;87.50;;;;;;5021520;28;20383;-89
2023/11/17 07:50:53;;;;;;;0.10;0.10;;;8.70;87.50;;;;;;5021076;28;20030;-87
2023/11/17 07:53:20;;;;;;;0.10;0.10;;;8.70;87.40;;;;;;5020505;28;20416;-88
2023/11/17 07:55:46;;;;;;;0.00;0.00;;;8.70;87.50;;;;;;5039368;28;20033;-87
2023/11/17 07:58:11;;;;;;;0.10;0.10;;;8.70;87.60;;;;;;5038758;28;20024;-88
2023/11/17 08:00:37;;;;;;;0.10;0.10;;;8.80;87.70;;;;;;5016818;28;20087;-89
2023/11/17 08:03:04;;;;;;;0.10;0.10;;;8.80;87.60;;;;;;5017219;28;20052;-88
2023/11/17 08:05:30;;;;;;;0.10;0.10;;;8.80;87.40;;;;;;5032928;28;20460;-88
2023/11/17 08:07:57;;;;;;;0.10;0.10;;;8.80;87.60;;;;;;5038798;28;20022;-89
2023/11/17 08:10:24;;;;;;;0.10;0.10;;;8.90;87.60;;;;;;5038555;28;20048;-88
2023/11/17 08:12:50;;;;;;;0.10;0.10;;;8.90;87.30;;;;;;5020466;28;20041;-86
2023/11/17 08:15:17;;;;;;;0.10;0.10;;;8.90;87.60;;;;;;5038690;28;20117;-88
2023/11/17 08:17:43;;;;;;;0.10;0.10;;;9.00;87.70;;;;;;5017394;28;20053;-88
2023/11/17 08:20:14;;;;;;;0.10;0.10;;;9.00;87.60;;;;;;5019701;28;20404;-89
2023/11/17 08:22:41;;;;;;;0.10;0.10;;;9.00;87.50;;;;;;5018180;28;20589;-89
2023/11/17 08:25:07;;;;;;;0.10;0.10;;;9.00;87.60;;;;;;5030915;28;20479;-89
2023/11/17 08:27:33;;;;;;;0.10;0.10;;;9.10;87.60;;;;;;5024212;28;20437;-88
2023/11/17 08:29:58;;;;;;;0.10;0.10;;;9.10;87.60;;;;;;5016183;28;20112;-88
2023/11/17 08:32:24;;;;;;;0.10;0.10;;;9.20;87.60;;;;;;5014495;28;20587;-88
2023/11/17 08:34:49;;;;;;;0.10;0.10;;;9.20;87.30;;;;;;5018186;28;20037;-88
2023/11/17 08:37:15;;;;;;;0.17;0.17;;;9.20;87.30;;;;;;5034200;28;20052;-90
2023/11/17 08:39:41;;;;;;;0.10;0.10;;;9.20;87.40;;;;;;5020951;28;20048;-88
2023/11/17 08:42:08;;;;;;;0.10;0.10;;;9.20;87.40;;;;;;5026050;28;20030;-88
2023/11/17 08:44:34;;;;;;;0.10;0.10;;;9.30;87.20;;;;;;5024046;28;20068;-88
2023/11/17 08:47:00;;;;;;;0.10;0.10;;;9.30;87.30;;;;;;5021610;28;20018;-88
2023/11/17 08:49:26;;;;;;;0.10;0.10;;;9.30;87.00;;;;;;5020939;28;20031;-87
2023/11/17 08:51:52;;;;;;;0.10;0.10;;;9.30;87.10;;;;;;5037593;28;20100;-88
2023/11/17 08:54:18;;;;;;;0.10;0.10;;;9.40;87.00;;;;;;5037903;28;20057;-88
2023/11/17 08:56:47;;;;;;;0.10;0.10;;;9.50;87.10;;;;;;5033275;28;20396;-89
2023/11/17 08:59:13;;;;;;;0.52;0.52;;;9.60;87.00;;;;;;5017634;28;20044;-89
2023/11/17 09:01:40;;;;;;;0.10;0.10;;;9.70;86.80;;;;;;5019410;28;20029;-91
2023/11/17 09:04:06;;;;;;;0.10;0.10;;;9.70;86.90;;;;;;5015408;28;20041;-88
2023/11/17 09:06:33;;;;;;;0.10;0.10;;;9.80;86.80;;;;;;5037891;28;20479;-87
2023/11/17 09:08:59;;;;;;;0.10;0.10;;;9.90;86.50;;;;;;5019220;28;20118;-89
2023/11/17 09:11:25;;;;;;;0.10;0.10;;;10.00;86.50;;;;;;5021205;28;20052;-86
2023/11/17 09:13:51;;;;;;;0.10;0.10;;;10.10;86.30;;;;;;5021162;28;20116;-88
2023/11/17 09:16:17;;;;;;;0.30;0.30;;;10.20;86.10;;;;;;5039070;28;20064;-86
2023/11/17 09:18:42;;;;;;;5.45;5.18;;;10.30;85.80;;;;;;5020528;28;20033;-87
2023/11/17 09:21:10;;;;;;;0.10;0.10;;;10.40;85.20;;;;;;5019796;28;20021;-87
2023/11/17 09:23:36;;;;;;;0.20;0.20;;;10.50;85.20;;;;;;5018740;28;20446;-86
2023/11/17 09:26:03;;;;;;;0.17;0.17;;;10.70;85.00;;;;;;5020122;28;20029;-86
2023/11/17 09:28:29;;;;;;;0.10;0.10;;;10.70;85.00;;;;;;5021611;28;20029;-87
2023/11/17 09:30:56;;;;;;;0.10;0.10;;;10.70;84.80;;;;;;5031766;28;20034;-86
2023/11/17 09:33:22;;;;;;;0.10;0.10;;;10.70;85.10;;;;;;5000729;28;20065;-87
2023/11/17 09:35:48;;;;;;;0.10;0.10;;;10.80;84.80;;;;;;5017969;28;20030;-87
2023/11/17 09:38:16;;;;;;;0.10;0.10;;;10.80;84.90;;;;;;5018902;28;20462;-87
2023/11/17 09:40:42;;;;;;;0.10;0.10;;;10.80;84.90;;;;;;5026819;28;20076;-86
2023/11/17 09:43:19;;;;;;;0.10;0.10;;;10.90;84.90;;;;;;5015113;28;20036;-86
2023/11/17 09:45:45;;;;;;;0.10;0.10;;;10.90;84.90;;;;;;5018037;28;20101;-88
2023/11/17 09:48:12;;;;;;;0.10;0.10;;;10.90;84.80;;;;;;5012572;28;20025;-86
2023/11/17 09:50:40;;;;;;;0.10;0.10;;;10.90;84.70;;;;;;5017851;28;20031;-87
2023/11/17 09:53:06;;;;;;;0.10;0.10;;;11.00;84.60;;;;;;5017159;28;20032;-82
2023/11/17 09:55:33;;;;;;;0.10;0.10;;;11.10;84.40;;;;;;5029937;28;20026;-82
2023/11/17 09:58:05;;;;;;;0.10;0.10;;;11.10;84.50;;;;;;4999371;28;20026;-82
2023/11/17 10:00:32;;;;;;;0.10;0.10;;;11.20;84.40;;;;;;5017483;28;20089;-83
2023/11/17 10:03:02;;;;;;;0.10;0.10;;;11.20;84.40;;;;;;5017010;28;20084;-82
2023/11/17 10:05:29;;;;;;;0.10;0.10;;;11.30;84.20;;;;;;5015910;28;20068;-82
2023/11/17 10:08:00;;;;;;;0.10;0.10;;;11.40;84.20;;;;;;5035243;28;20045;-83
2023/11/17 10:10:27;;;;;;;0.10;0.10;;;11.40;84.20;;;;;;5032536;28;20164;-83
2023/11/17 10:12:56;;;;;;;0.10;0.10;;;11.40;84.20;;;;;;5019253;28;20025;-84
2023/11/17 10:15:25;;;;;;;0.10;0.10;;;11.50;83.90;;;;;;5019560;28;20053;-83
2023/11/17 10:18:07;;;;;;;0.10;0.10;;;11.50;83.80;;;;;;5033097;28;20041;-83
2023/11/17 10:20:35;;;;;;;0.10;0.10;;;11.60;83.80;;;;;;5035048;28;20026;-83
2023/11/17 10:23:02;;;;;;;0.10;0.10;;;11.70;83.50;;;;;;5016943;28;20021;-83
2023/11/17 10:25:27;;;;;;;0.10;0.10;;;11.70;83.70;;;;;;5016974;28;20034;-83
2023/11/17 10:27:53;;;;;;;0.10;0.10;;;11.70;83.50;;;;;;5023911;28;20018;-83
2023/11/17 10:30:25;;;;;;;0.10;0.10;;;11.80;83.40;;;;;;5016941;28;20422;-83
2023/11/17 10:33:19;;;;;;;0.10;0.10;;;11.80;83.40;;;;;;5018421;28;20083;-82
2023/11/17 10:36:00;;;;;;;0.10;0.10;;;11.90;83.10;;;;;;4975369;28;20033;-83
2023/11/17 10:38:26;;;;;;;0.10;0.10;;;12.00;82.90;;;;;;5033472;28;20044;-82
2023/11/17 10:40:51;;;;;;;0.10;0.10;;;12.00;82.90;;;;;;5035237;28;20030;-82
2023/11/17 10:43:17;;;;;;;0.10;0.10;;;12.10;82.60;;;;;;5035398;28;20029;-82
2023/11/17 10:45:45;;;;;;;0.10;0.10;;;12.20;82.60;;;;;;5016718;28;20105;-82
2023/11/17 10:48:16;;;;;;;0.10;0.10;;;12.20;82.40;;;;;;5017782;28;20037;-82
2023/11/17 10:50:43;;;;;;;0.10;0.10;;;12.20;82.20;;;;;;5017083;28;20018;-82
2023/11/17 10:53:20;;;;;;;0.10;0.10;;;12.20;82.20;;;;;;5017304;28;21068;-82
2023/11/17 10:55:53;;;;;;;0.10;0.10;;;12.30;82.20;;;;;;5016228;28;20030;-82
2023/11/17 10:58:19;;;;;;;;;;;12.30;82.00;;;;;;5017264;28;20037;-82
2023/11/17 11:00:47;;;;;;;0.10;0.10;;;12.30;81.90;;;;;;5015934;28;19928;-83
2023/11/17 11:03:15;;;;;;;0.10;0.10;;;12.50;81.80;;;;;;5016427;28;20054;-82
2023/11/17 11:05:45;;;;;;;0.10;0.10;;;12.50;81.80;;;;;;5009853;28;20025;-82
2023/11/17 11:08:22;;;;;;;0.10;0.10;;;12.60;81.80;;;;;;5040004;28;20384;-82
2023/11/17 11:10:49;;;;;;;0.10;0.10;;;12.60;81.10;;;;;;5038816;28;20085;-82
2023/11/17 11:13:16;;;;;;;0.13;0.13;;;12.70;80.90;;;;;;5020360;28;20077;-82
2023/11/17 11:15:42;;;;;;;0.10;0.10;;;12.80;81.00;;;;;;5003187;28;20534;-82
2023/11/17 11:18:15;;;;;;;0.10;0.10;;;12.80;80.90;;;;;;5033591;28;20021;-82
2023/11/17 11:20:42;;;;;;;0.10;0.10;;;12.90;80.60;;;;;;5024384;28;20117;-82
2023/11/17 11:23:09;;;;;;;0.10;0.10;;;12.90;80.70;;;;;;5022187;28;20037;-82
2023/11/17 11:25:35;;;;;;;0.10;0.10;;;13.00;80.40;;;;;;5040221;28;20039;-82
2023/11/17 11:28:03;;;;;;;0.10;0.10;;;13.00;80.30;;;;;;5039070;28;20029;-81
2023/11/17 11:30:32;;;;;;;0.10;0.10;;;13.10;80.40;;;;;;5019996;28;20068;-81
2023/11/17 11:32:58;;;;;;;0.10;0.10;;;13.10;80.20;;;;;;5021825;28;20062;-81
2023/11/17 11:35:24;;;;;;;0.10;0.10;;;13.10;79.90;;;;;;5039337;28;20076;-82
2023/11/17 11:37:52;;;;;;;0.10;0.10;;;13.10;79.90;;;;;;5017730;28;20046;-80
2023/11/17 11:40:19;;;;;;;0.10;0.10;;;13.20;79.80;;;;;;5025663;28;20030;-80
2023/11/17 11:42:44;;;;;;;0.10;0.10;;;13.30;79.60;;;;;;5002735;28;20105;-81
2023/11/17 11:45:16;;;;;;;0.10;0.10;;;13.30;79.30;;;;;;5010944;28;20064;-81
2023/11/17 11:47:45;;;;;;;0.10;0.10;;;13.50;79.60;;;;;;5039847;28;20049;-81
2023/11/17 11:50:22;;;;;;;0.10;0.10;;;13.50;78.70;;;;;;5029794;28;20053;-81
2023/11/17 11:53:17;;;;;;;0.10;0.10;;;13.60;78.10;;;;;;5021734;28;20511;-81
2023/11/17 11:55:43;;;;;;;0.10;0.10;;;13.70;77.90;;;;;;5002741;28;20531;-81
2023/11/17 11:58:08;;;;;;;0.10;0.10;;;13.70;77.80;;;;;;5019937;28;20021;-82
2023/11/17 12:00:35;;;;;;;0.10;0.10;;;13.70;77.60;;;;;;5038269;28;20029;-81
2023/11/17 12:03:03;;;;;;;0.10;0.10;;;13.70;77.50;;;;;;5019648;28;20018;-82
2023/11/17 12:05:33;;;;;;;0.10;0.10;;;13.70;76.90;;;;;;5019472;28;20030;-81
2023/11/17 12:08:00;;;;;;;0.10;0.10;;;13.80;76.30;;;;;;5019480;28;20022;-81
2023/11/17 12:10:33;;;;;;;0.10;0.10;;;13.80;76.30;;;;;;5032679;28;20080;-81
2023/11/17 12:12:59;;;;;;;0.10;0.10;;;13.80;76.40;;;;;;5039541;28;20033;-82
2023/11/17 12:15:26;;;;;;;0.10;0.10;;;13.80;76.60;;;;;;5036601;28;20026;-81
2023/11/17 12:17:59;;;;;;;0.10;0.10;;;13.80;75.70;;;;;;5019586;28;20026;-81
2023/11/17 12:20:27;;;;;;;0.10;0.10;;;13.80;75.80;;;;;;5019703;28;20030;-81
2023/11/17 12:23:00;;;;;;;0.00;0.00;;;13.80;76.30;;;;;;5019355;28;20176;-81
2023/11/17 12:25:26;;;;;;;;;;;13.70;76.60;;;;;;5019808;28;20060;-81
2023/11/17 12:27:52;;;;;;;0.10;0.10;;;13.70;76.20;;;;;;5013963;28;19913;-81
2023/11/17 12:30:20;;;;;;;0.10;0.10;;;13.70;75.60;;;;;;5021002;28;20434;-81
2023/11/17 12:32:48;;;;;;;0.10;0.10;;;13.70;76.10;;;;;;5037211;28;20053;-81
2023/11/17 12:35:15;;;;;;;0.10;0.10;;;13.80;76.40;;;;;;5019103;28;20097;-83
2023/11/17 12:37:41;;;;;;;0.10;0.10;;;13.80;74.40;;;;;;5021193;28;20419;-81
2023/11/17 12:40:14;;;;;;;0.35;0.10;;;13.90;75.90;;;;;;5023237;28;20068;-84
2023/11/17 12:42:39;;;;;;;0.10;0.10;;;13.90;75.30;;;;;;5034719;28;20030;-81
2023/11/17 12:45:07;;;;;;;0.10;0.10;;;14.00;75.70;;;;;;5037949;28;20029;-81
2023/11/17 12:47:32;;;;;;;0.10;0.10;;;13.90;75.10;;;;;;5018538;28;20395;-81
2023/11/17 12:49:59;;;;;;;0.10;0.10;;;14.00;75.40;;;;;;5001146;28;20033;-81
2023/11/17 12:52:25;;;;;;;0.10;0.10;;;14.10;75.80;;;;;;5017409;28;20037;-81
2023/11/17 12:55:08;;;;;;;0.10;0.10;;;14.10;75.60;;;;;;5017558;28;20404;-81
2023/11/17 12:57:39;;;;;;;0.10;0.10;;;14.20;75.20;;;;;;5000484;28;20030;-81
2023/11/17 13:00:15;;;;;;;0.10;0.10;;;14.20;75.60;;;;;;5020008;28;20392;-81
2023/11/17 13:02:41;;;;;;;0.10;0.10;;;14.20;75.20;;;;;;5018482;28;20030;-80
2023/11/17 13:05:10;;;;;;;0.10;0.10;;;14.20;74.80;;;;;;5035860;28;20025;-80
2023/11/17 13:07:36;;;;;;;0.10;0.10;;;14.30;74.80;;;;;;5018606;28;20488;-80
2023/11/17 13:10:06;;;;;;;0.10;0.10;;;14.30;74.20;;;;;;5018093;28;20040;-80
2023/11/17 13:12:32;;;;;;;0.10;0.10;;;14.30;74.70;;;;;;5018398;28;20029;-79
2023/11/17 13:14:58;;;;;;;0.10;0.10;;;14.30;74.80;;;;;;5018037;28;20022;-81
2023/11/17 13:17:24;;;;;;;0.10;0.10;;;14.40;75.00;;;;;;5025968;28;20029;-81
2023/11/17 13:19:51;;;;;;;0.00;0.00;;;14.40;73.50;;;;;;5037949;28;20022;-81
2023/11/17 13:22:17;;;;;;;0.10;0.10;;;14.40;74.10;;;;;;5022226;28;20572;-81
2023/11/17 13:24:44;;;;;;;0.10;0.10;;;14.40;73.10;;;;;;5017828;28;20097;-81
2023/11/17 13:27:12;;;;;;;0.10;0.10;;;14.40;74.10;;;;;;5018124;28;20075;-81
2023/11/17 13:29:40;;;;;;;0.08;0.08;;;14.30;73.80;;;;;;5036081;28;20017;-80
2023/11/17 13:32:06;;;;;;;0.10;0.10;;;14.20;72.30;;;;;;5022676;28;20057;-81
2023/11/17 13:34:35;;;;;;;0.10;0.10;;;14.20;73.30;;;;;;5037393;28;20041;-80
2023/11/17 13:37:03;;;;;;;0.10;0.10;;;14.20;73.90;;;;;;5032964;28;20080;-80
2023/11/17 13:39:32;;;;;;;0.08;0.08;;;14.10;74.00;;;;;;5033626;28;20021;-81
2023/11/17 13:41:58;;;;;;;0.10;0.10;;;14.00;73.70;;;;;;5032500;28;20026;-81
2023/11/17 13:44:26;;;;;;;0.10;0.10;;;13.90;73.50;;;;;;5014246;28;20498;-81
2023/11/17 13:46:55;;;;;;;0.10;0.10;;;13.90;74.20;;;;;;5019905;28;20445;-80
2023/11/17 13:49:23;;;;;;;0.10;0.10;;;13.80;75.20;;;;;;5035589;28;20021;-81
2023/11/17 13:51:56;;;;;;;0.10;0.10;;;13.70;74.10;;;;;;5022587;28;20041;-81
2023/11/17 13:54:25;;;;;;;0.00;0.00;;;13.70;74.60;;;;;;5030277;28;20025;-81
2023/11/17 13:56:50;;;;;;;0.10;0.10;;;13.60;74.70;;;;;;5011060;28;20026;-80
2023/11/17 13:59:18;;;;;;;0.10;0.10;;;13.60;74.50;;;;;;5034510;28;20037;-81
2023/11/17 14:01:49;;;;;;;0.10;0.10;;;13.60;75.40;;;;;;5036495;28;20021;-81
2023/11/17 14:04:15;;;;;;;0.10;0.10;;;13.60;75.60;;;;;;5017531;28;20054;-80
2023/11/17 14:06:41;;;;;;;0.10;0.10;;;13.60;75.50;;;;;;5037047;28;20025;-81
2023/11/17 14:09:07;;;;;;;0.10;0.10;;;13.60;76.00;;;;;;5032691;28;20372;-80
2023/11/17 14:11:33;;;;;;;0.10;0.10;;;13.60;76.20;;;;;;5037298;28;20068;-80
2023/11/17 14:13:58;;;;;;;0.10;0.10;;;13.60;76.10;;;;;;5018055;28;20484;-80
2023/11/17 14:16:24;;;;;;;0.10;0.10;;;13.60;76.30;;;;;;5032497;28;20034;-80
2023/11/17 14:18:53;;;;;;;0.10;0.10;;;13.60;76.50;;;;;;5016533;28;20061;-80
2023/11/17 14:21:19;;;;;;;0.10;0.10;;;13.60;76.50;;;;;;5019183;28;20060;-80
2023/11/17 14:23:52;;;;;;;0.10;0.10;;;13.60;76.50;;;;;;5023514;28;20041;-80
2023/11/17 14:26:21;;;;;;;;;;;13.60;76.90;;;;;;5025472;28;20377;-80
2023/11/17 14:28:49;;;;;;;0.10;0.10;;;13.60;76.00;;;;;;5013979;28;19936;-80
2023/11/17 14:31:16;;;;;;;0.10;0.10;;;13.70;76.30;;;;;;5015568;28;20073;-80
2023/11/17 14:33:41;;;;;;;0.20;0.10;;;13.80;76.70;;;;;;5017056;28;20037;-80
2023/11/17 14:36:07;;;;;;;0.10;0.10;;;13.80;77.30;;;;;;5034963;28;20029;-80
2023/11/17 14:38:33;;;;;;;0.10;0.10;;;13.90;76.40;;;;;;5031201;28;20437;-80
2023/11/17 14:40:59;;;;;;;0.10;0.10;;;13.90;77.00;;;;;;5025027;28;20030;-80
2023/11/17 14:43:25;;;;;;;0.08;0.08;;;13.90;76.70;;;;;;5016606;28;20030;-80
2023/11/17 14:45:53;;;;;;;0.10;0.10;;;13.80;77.20;;;;;;5016883;28;20018;-81
2023/11/17 14:48:19;;;;;;;0.10;0.10;;;13.80;77.40;;;;;;5016282;28;20064;-80
2023/11/17 14:50:45;;;;;;;0.10;0.10;;;13.80;77.20;;;;;;5015791;28;20018;-80
2023/11/17 14:53:11;;;;;;;0.10;0.10;;;13.70;77.40;;;;;;5027474;28;20025;-80
2023/11/17 14:55:37;;;;;;;0.00;0.00;;;13.70;77.50;;;;;;5029639;28;20044;-80
2023/11/17 14:58:08;;;;;;;0.03;0.03;;;13.70;77.60;;;;;;5035671;28;20025;-80
2023/11/17 15:00:39;;;;;;;0.10;0.10;;;13.70;77.10;;;;;;5025617;28;20033;-80
2023/11/17 15:03:05;;;;;;;0.10;0.10;;;13.70;77.60;;;;;;5021004;28;20044;-80
2023/11/17 15:05:31;;;;;;;0.10;0.10;;;13.70;77.80;;;;;;5013271;28;20025;-80
2023/11/17 15:07:57;;;;;;;0.00;0.00;;;13.70;77.90;;;;;;5025109;28;20041;-80
2023/11/17 15:10:23;;;;;;;0.10;0.10;;;13.70;77.60;;;;;;5018283;28;20075;-80
2023/11/17 15:12:49;;;;;;;0.10;0.10;;;13.70;77.60;;;;;;5017740;28;20037;-80
2023/11/17 15:15:27;;;;;;;0.10;0.10;;;13.70;78.30;;;;;;5018371;28;20029;-80
2023/11/17 15:17:57;;;;;;;0.10;0.10;;;13.70;78.20;;;;;;5035675;28;20025;-80
2023/11/17 15:20:24;;;;;;;0.10;0.10;;;13.70;78.40;;;;;;5032362;28;20084;-80
2023/11/17 15:22:51;;;;;;;0.00;0.00;;;13.60;78.50;;;;;;5033487;28;20041;-80
2023/11/17 15:25:24;;;;;;;0.10;0.10;;;13.60;78.90;;;;;;5035705;28;20017;-80
2023/11/17 15:27:53;;;;;;;0.00;0.00;;;13.60;78.70;;;;;;5014096;28;20116;-80
2023/11/17 15:30:20;;;;;;;0.10;0.10;;;13.50;79.00;;;;;;5006070;28;20076;-80
2023/11/17 15:32:45;;;;;;;0.10;0.10;;;13.60;79.60;;;;;;5019890;28;20049;-80
2023/11/17 15:35:11;;;;;;;0.10;0.10;;;13.50;79.70;;;;;;5026486;28;20036;-80
2023/11/17 15:37:43;;;;;;;0.10;0.10;;;13.50;78.80;;;;;;5034734;28;20506;-80
2023/11/17 15:40:12;;;;;;;0.00;0.00;;;13.40;79.10;;;;;;5016266;28;20022;-80
2023/11/17 15:42:43;;;;;;;0.10;0.10;;;13.40;79.20;;;;;;5017089;28;20474;-80
2023/11/17 15:45:11;;;;;;;0.10;0.10;;;13.30;79.60;;;;;;5029374;28;20018;-80
2023/11/17 15:47:40;;;;;;;0.00;0.00;;;13.30;80.00;;;;;;5034524;28;20446;-80
2023/11/17 15:50:12;;;;;;;0.10;0.10;;;13.40;80.40;;;;;;5016367;28;20582;-80
2023/11/17 15:52:40;;;;;;;0.20;0.10;;;13.30;79.80;;;;;;5036014;28;20025;-80
2023/11/17 15:55:07;;;;;;;0.10;0.10;;;13.30;80.50;;;;;;5034811;28;20023;-80
2023/11/17 15:57:34;;;;;;;0.00;0.00;;;13.30;80.10;;;;;;5038142;28;20029;-80
2023/11/17 16:00:03;;;;;;;0.10;0.10;;;13.20;81.00;;;;;;5038382;28;20018;-81
2023/11/17 16:02:28;;;;;;;0.10;0.10;;;13.20;80.50;;;;;;5031830;28;20488;-80
2023/11/17 16:04:56;;;;;;;0.05;0.05;;;13.10;80.50;;;;;;5038196;28;20040;-81
2023/11/17 16:07:22;;;;;;;0.00;0.00;;;13.10;80.60;;;;;;5038000;28;20488;-80
2023/11/17 16:09:49;;;;;;;0.00;0.00;;;13.10;80.80;;;;;;5037792;28;20048;-80
2023/11/17 16:12:14;;;;;;;0.00;0.00;;;13.00;80.70;;;;;;5034206;28;20026;-80
2023/11/17 16:14:40;;;;;;;0.10;0.10;;;13.00;81.10;;;;;;5038273;28;20045;-80
2023/11/17 16:17:11;;;;;;;0.03;0.03;;;12.90;81.00;;;;;;5028591;28;20024;-80
2023/11/17 16:19:37;;;;;;;0.20;0.10;;;12.90;81.70;;;;;;5033772;28;20026;-80
2023/11/17 16:22:03;;;;;;;0.10;0.10;;;12.90;81.60;;;;;;5018916;28;20084;-80
2023/11/17 16:24:30;;;;;;;0.10;0.10;;;12.90;81.90;;;;;;5000917;28;20026;-81
2023/11/17 16:26:57;;;;;;;0.00;0.00;;;12.90;81.70;;;;;;5028098;28;20028;-81
2023/11/17 16:29:23;;;;;;;0.00;0.00;;;12.90;81.50;;;;;;5037514;28;20108;-81
2023/11/17 16:31:48;;;;;;;0.10;0.10;;;12.90;81.80;;;;;;5037297;28;20052;-82
2023/11/17 16:34:16;;;;;;;0.00;0.00;;;12.90;81.90;;;;;;5037591;28;20026;-83
2023/11/17 16:36:45;;;;;;;0.00;0.00;;;12.90;81.70;;;;;;5035492;28;20067;-82
2023/11/17 16:39:18;;;;;;;0.10;0.10;;;12.90;81.70;;;;;;5036305;28;20507;-83
2023/11/17 16:41:44;;;;;;;0.10;0.10;;;12.80;81.80;;;;;;5019395;28;20057;-83
2023/11/17 16:44:10;;;;;;;0.10;0.10;;;12.80;82.50;;;;;;5030965;28;20025;-83
2023/11/17 16:46:36;;;;;;;0.10;0.10;;;12.70;81.90;;;;;;5037873;28;20061;-83
2023/11/17 16:49:01;;;;;;;0.10;0.10;;;12.80;82.60;;;;;;5037370;28;20028;-85
2023/11/17 16:51:31;;;;;;;0.10;0.10;;;12.80;82.50;;;;;;5037378;28;20657;-85
2023/11/17 16:53:58;;;;;;;0.03;0.03;;;12.80;82.50;;;;;;5018234;28;20072;-86
2023/11/17 16:56:23;;;;;;;0.10;0.10;;;12.80;82.40;;;;;;5033965;28;20530;-79
2023/11/17 16:58:49;;;;;;;0.10;0.10;;;12.80;82.10;;;;;;5036016;28;20030;-83
2023/11/17 17:01:15;;;;;;;0.10;0.10;;;12.70;82.20;;;;;;5032431;28;20069;-82
2023/11/17 17:03:40;;;;;;;0.10;0.10;;;12.80;82.40;;;;;;5029258;28;20022;-84
2023/11/17 17:06:12;;;;;;;0.00;0.00;;;12.80;82.50;;;;;;5040706;28;20384;-88
2023/11/17 17:08:38;;;;;;;0.05;0.05;;;12.70;82.80;;;;;;5036845;28;20022;-88
2023/11/17 17:11:04;;;;;;;0.10;0.10;;;12.70;82.90;;;;;;5020091;28;20017;-89
2023/11/17 17:13:30;;;;;;;0.10;0.10;;;12.80;83.10;;;;;;5032860;28;20057;-85
2023/11/17 17:15:56;;;;;;;0.00;0.00;;;12.70;83.20;;;;;;5015905;28;20403;-82
2023/11/17 17:18:21;;;;;;;0.10;0.10;;;12.70;83.30;;;;;;5034490;28;20052;-85
2023/11/17 17:20:47;;;;;;;0.10;0.10;;;12.70;83.40;;;;;;5037233;28;20052;-83
2023/11/17 17:23:12;;;;;;;0.10;0.10;;;12.70;83.40;;;;;;5034955;28;20044;-85
2023/11/17 17:25:39;;;;;;;0.10;0.10;;;12.70;83.50;;;;;;5033670;28;20022;-84
2023/11/17 17:28:06;;;;;;;0.10;0.10;;;12.60;83.40;;;;;;5037985;28;20029;-84
2023/11/17 17:30:32;;;;;;;0.10;0.10;;;12.60;83.90;;;;;;5018042;28;20083;-81
2023/11/17 17:33:02;;;;;;;0.10;0.10;;;12.70;83.60;;;;;;5037354;28;20067;-85
2023/11/17 17:35:30;;;;;;;0.10;0.10;;;12.60;83.70;;;;;;5014620;28;20075;-84
2023/11/17 17:37:57;;;;;;;0.10;0.10;;;12.70;83.70;;;;;;5017404;28;20396;-85
2023/11/17 17:40:25;;;;;;;0.00;0.00;;;12.70;83.80;;;;;;5004609;28;20112;-84
2023/11/17 17:42:55;;;;;;;0.10;0.10;;;12.70;83.80;;;;;;5013500;28;20477;-85
2023/11/17 17:45:26;;;;;;;0.10;0.10;;;12.70;83.90;;;;;;4999248;28;20022;-85
2023/11/17 17:47:55;;;;;;;0.10;0.10;;;12.70;83.90;;;;;;5017557;28;20104;-84
2023/11/17 17:50:27;;;;;;;0.03;0.03;;;12.60;83.70;;;;;;5016850;28;20099;-85
2023/11/17 17:52:53;;;;;;;0.10;0.10;;;12.60;83.60;;;;;;5017458;28;20477;-86
2023/11/17 17:55:22;;;;;;;0.10;0.10;;;12.60;84.00;;;;;;5017477;28;20357;-85
2023/11/17 17:57:49;;;;;;;0.10;0.10;;;12.60;83.90;;;;;;5034603;28;20034;-81
2023/11/17 18:00:16;;;;;;;0.10;0.10;;;12.50;84.10;;;;;;5037447;28;20025;-89
2023/11/17 18:02:43;;;;;;;0.10;0.10;;;12.50;84.00;;;;;;5015547;28;20025;-90
2023/11/17 18:05:13;;;;;;;0.10;0.10;;;12.50;84.10;;;;;;5017538;28;20022;-83
2023/11/17 18:07:39;;;;;;;0.10;0.10;;;12.60;84.50;;;;;;5009332;28;20030;-83
2023/11/17 18:10:06;;;;;;;0.10;0.10;;;12.50;84.10;;;;;;5026493;28;20061;-87
2023/11/17 18:12:32;;;;;;;0.00;0.00;;;12.60;84.10;;;;;;5000153;28;20030;-82
2023/11/17 18:15:00;;;;;;;0.10;0.10;;;12.60;84.10;;;;;;5012720;28;20400;-87
2023/11/17 18:17:27;;;;;;;0.10;0.10;;;12.60;84.30;;;;;;5010507;28;20044;-87
2023/11/17 18:19:52;;;;;;;0.10;0.10;;;12.60;84.20;;;;;;5035157;28;20025;-88
2023/11/17 18:22:20;;;;;;;0.10;0.10;;;12.50;84.00;;;;;;5034811;28;20025;-87